Time;durP1;ratioP1;P1;durP2;ratioP2;P2;SDS_P1;SDS_P2;PMS_P1;PMS_P2;Temp;Humidity;BMP_temperature;BMP_pressure;BME280_temperature;BME280_humidity;BME280_pressure;Samples;Min_cycle;Max_cycle;Signal;HPM_P1;HPM_P2
2023/07/27 00:01:00;;;;;;;9.60;5.77;;;14.30;99.90;;;;;;5093301;28;20039;-79
2023/07/27 00:03:26;;;;;;;8.43;5.73;;;14.30;99.90;;;;;;5059082;28;20055;-79
2023/07/27 00:05:51;;;;;;;11.83;6.10;;;14.30;99.90;;;;;;5092605;28;20052;-79
2023/07/27 00:08:17;;;;;;;9.10;5.73;;;14.30;99.90;;;;;;5093362;28;20044;-79
2023/07/27 00:10:43;;;;;;;12.40;5.57;;;14.30;99.90;;;;;;5092505;28;20048;-79
2023/07/27 00:13:08;;;;;;;9.00;5.40;;;14.30;99.90;;;;;;5075249;28;20044;-79
2023/07/27 00:15:34;;;;;;;10.03;5.60;;;14.30;99.90;;;;;;5093615;28;20429;-79
2023/07/27 00:18:00;;;;;;;8.53;5.47;;;14.30;99.90;;;;;;5092033;28;20050;-79
2023/07/27 00:20:25;;;;;;;9.27;5.60;;;14.30;99.90;;;;;;5075401;28;20052;-79
2023/07/27 00:22:51;;;;;;;9.33;5.17;;;14.30;99.90;;;;;;5093332;28;20044;-79
2023/07/27 00:25:17;;;;;;;8.67;6.00;;;14.40;99.90;;;;;;5093029;28;20040;-80
2023/07/27 00:27:43;;;;;;;8.33;4.93;;;14.30;99.90;;;;;;5092798;28;20047;-79
2023/07/27 00:30:09;;;;;;;11.30;5.50;;;14.30;99.90;;;;;;5092969;28;20055;-79
2023/07/27 00:32:34;;;;;;;8.17;5.60;;;14.40;99.90;;;;;;5093251;28;20422;-79
2023/07/27 00:35:00;;;;;;;9.37;5.67;;;14.40;99.90;;;;;;5092938;28;20479;-79
2023/07/27 00:37:26;;;;;;;10.23;5.40;;;14.40;99.90;;;;;;5093147;28;20048;-79
2023/07/27 00:39:51;;;;;;;10.07;5.30;;;14.40;99.90;;;;;;5092899;28;20500;-79
2023/07/27 00:42:17;;;;;;;10.47;5.50;;;14.40;99.90;;;;;;5092853;28;20071;-79
2023/07/27 00:44:43;;;;;;;9.53;5.67;;;14.40;99.90;;;;;;5091916;28;20113;-79
2023/07/27 00:47:08;;;;;;;9.20;5.83;;;14.40;99.90;;;;;;5092817;28;20116;-79
2023/07/27 00:49:34;;;;;;;9.53;5.13;;;14.40;99.90;;;;;;5092040;28;20051;-79
2023/07/27 00:52:05;;;;;;;8.90;5.33;;;14.40;99.90;;;;;;5091436;28;20051;-80
2023/07/27 00:54:32;;;;;;;9.00;5.53;;;14.40;99.90;;;;;;5092856;28;20048;-78
2023/07/27 00:56:58;;;;;;;9.50;5.77;;;14.40;99.90;;;;;;5092931;28;20285;-79
2023/07/27 00:59:24;;;;;;;10.73;6.33;;;14.40;99.90;;;;;;5092717;28;20361;-80
2023/07/27 01:01:50;;;;;;;8.27;5.23;;;14.40;99.90;;;;;;5092910;28;20381;-80
2023/07/27 01:04:15;;;;;;;8.90;5.30;;;14.40;99.90;;;;;;5092571;28;20040;-79
2023/07/27 01:06:41;;;;;;;10.57;5.80;;;14.40;99.90;;;;;;5092869;28;20293;-79
2023/07/27 01:09:07;;;;;;;8.93;5.30;;;14.40;99.90;;;;;;5092385;28;20131;-80
2023/07/27 01:12:02;;;;;;;7.90;5.40;;;14.40;99.90;;;;;;5092879;28;20387;-80
2023/07/27 01:14:46;;;;;;;10.17;5.20;;;14.40;99.90;;;;;;5086761;28;20139;-79
2023/07/27 01:17:54;;;;;;;8.10;5.00;;;14.40;99.90;;;;;;5092550;28;20275;-80
2023/07/27 01:20:47;;;;;;;9.00;6.00;;;14.40;99.90;;;;;;5057711;28;20302;-80
2023/07/27 01:23:51;;;;;;;9.10;4.90;;;14.40;99.90;;;;;;5091045;28;20770;-80
2023/07/27 01:27:01;;;;;;;9.20;5.13;;;14.40;99.90;;;;;;5092369;28;20339;-80
2023/07/27 01:29:39;;;;;;;8.43;5.43;;;14.40;99.90;;;;;;5091431;28;20331;-80
2023/07/27 01:32:08;;;;;;;7.87;4.90;;;14.30;99.90;;;;;;5092384;28;20349;-80
2023/07/27 01:34:36;;;;;;;8.43;5.20;;;14.30;99.90;;;;;;5092576;28;20314;-80
2023/07/27 01:37:04;;;;;;;7.63;4.97;;;14.30;99.90;;;;;;5074918;28;20766;-80
2023/07/27 01:39:43;;;;;;;9.67;5.63;;;14.30;99.90;;;;;;5094707;28;20286;-80
2023/07/27 01:42:13;;;;;;;9.70;5.50;;;14.30;99.90;;;;;;5094909;28;20350;-80
2023/07/27 01:44:40;;;;;;;8.17;5.20;;;14.30;99.90;;;;;;5096360;28;20270;-80
2023/07/27 01:47:07;;;;;;;8.70;5.47;;;14.30;99.90;;;;;;5095952;28;20310;-80
2023/07/27 01:49:37;;;;;;;9.93;5.20;;;14.30;99.90;;;;;;5096032;28;20282;-80
2023/07/27 01:52:04;;;;;;;8.53;4.73;;;14.30;99.90;;;;;;5096087;28;20676;-80
2023/07/27 01:54:31;;;;;;;8.90;5.20;;;14.30;99.90;;;;;;5094809;28;20286;-81
2023/07/27 01:56:58;;;;;;;8.73;5.03;;;14.30;99.90;;;;;;5095558;28;20290;-79
2023/07/27 01:59:24;;;;;;;7.87;5.10;;;14.30;99.90;;;;;;5094394;28;20286;-80
2023/07/27 02:01:50;;;;;;;7.60;5.33;;;14.30;99.90;;;;;;5095508;28;20834;-80
2023/07/27 02:04:16;;;;;;;8.33;4.73;;;14.40;99.90;;;;;;5094640;28;20290;-80
2023/07/27 02:06:43;;;;;;;9.03;5.00;;;14.40;99.90;;;;;;5094550;28;20051;-80
2023/07/27 02:09:09;;;;;;;10.90;5.77;;;14.40;99.90;;;;;;5077644;28;20052;-79
2023/07/27 02:11:35;;;;;;;10.83;5.10;;;14.40;99.90;;;;;;5094519;28;20286;-80
2023/07/27 02:14:07;;;;;;;8.33;5.03;;;14.40;99.90;;;;;;5094523;28;20056;-79
2023/07/27 02:16:56;;;;;;;8.87;5.30;;;14.40;99.90;;;;;;5095570;28;20420;-80
2023/07/27 02:19:29;;;;;;;8.93;5.30;;;14.40;99.90;;;;;;5094190;28;20274;-80
2023/07/27 02:21:56;;;;;;;8.50;5.10;;;14.40;99.90;;;;;;5095703;28;20302;-80
2023/07/27 02:24:24;;;;;;;8.17;4.80;;;14.50;99.90;;;;;;5094290;28;20743;-79
2023/07/27 02:26:50;;;;;;;11.10;5.30;;;14.50;99.90;;;;;;5077780;28;20286;-80
2023/07/27 02:29:16;;;;;;;8.50;5.10;;;14.50;99.90;;;;;;5095023;28;20278;-80
2023/07/27 02:31:42;;;;;;;8.70;5.40;;;14.50;99.90;;;;;;5095027;28;20762;-80
2023/07/27 02:34:08;;;;;;;8.57;5.57;;;14.50;99.90;;;;;;5094470;28;20294;-79
2023/07/27 02:36:34;;;;;;;9.23;5.00;;;14.50;99.90;;;;;;5094960;28;20087;-79
2023/07/27 02:39:00;;;;;;;9.23;5.40;;;14.50;99.90;;;;;;5095186;28;20058;-79
2023/07/27 02:41:26;;;;;;;8.90;4.80;;;14.50;99.90;;;;;;5094869;28;20047;-80
2023/07/27 02:43:52;;;;;;;9.67;4.80;;;14.50;99.90;;;;;;5095063;28;20365;-80
2023/07/27 02:46:18;;;;;;;8.73;5.40;;;14.50;99.90;;;;;;5094718;28;20079;-80
2023/07/27 02:48:43;;;;;;;9.97;5.37;;;14.50;99.90;;;;;;5095357;28;20052;-80
2023/07/27 02:51:09;;;;;;;9.37;5.00;;;14.50;99.90;;;;;;5093291;28;20097;-80
2023/07/27 02:53:35;;;;;;;8.03;4.70;;;14.60;99.90;;;;;;5094605;28;20105;-80
2023/07/27 02:56:02;;;;;;;7.47;5.17;;;14.60;99.90;;;;;;5093702;28;20130;-80
2023/07/27 02:58:28;;;;;;;9.17;5.23;;;14.60;99.90;;;;;;5094517;28;20084;-79
2023/07/27 03:00:56;;;;;;;9.13;5.80;;;14.50;99.90;;;;;;5094660;28;20314;-80
2023/07/27 03:03:22;;;;;;;8.53;5.37;;;14.60;99.90;;;;;;5093447;28;20127;-80
2023/07/27 03:05:48;;;;;;;10.23;5.60;;;14.60;99.90;;;;;;5094627;28;20329;-79
2023/07/27 03:08:14;;;;;;;10.63;5.47;;;14.50;99.90;;;;;;5093620;28;20052;-79
2023/07/27 03:10:40;;;;;;;8.03;5.40;;;14.60;99.90;;;;;;5094573;28;20058;-80
2023/07/27 03:13:05;;;;;;;8.10;4.90;;;14.60;99.90;;;;;;5093596;28;20048;-79
2023/07/27 03:15:31;;;;;;;9.40;5.97;;;14.60;99.90;;;;;;5093235;28;20061;-79
2023/07/27 03:17:57;;;;;;;7.20;4.90;;;14.60;99.90;;;;;;5094564;28;20131;-78
2023/07/27 03:20:22;;;;;;;7.80;5.83;;;14.60;99.90;;;;;;5093114;28;20452;-80
2023/07/27 03:22:48;;;;;;;10.57;6.60;;;14.60;99.90;;;;;;5094200;28;20040;-79
2023/07/27 03:25:14;;;;;;;12.20;6.67;;;14.50;99.90;;;;;;5094302;28;20052;-79
2023/07/27 03:27:40;;;;;;;10.83;6.30;;;14.60;99.90;;;;;;5093916;28;20607;-79
2023/07/27 03:30:06;;;;;;;8.93;6.17;;;14.50;99.90;;;;;;5094214;28;20208;-79
2023/07/27 03:32:32;;;;;;;11.80;6.67;;;14.50;99.90;;;;;;5093872;28;20542;-79
2023/07/27 03:34:58;;;;;;;10.03;6.67;;;14.50;99.90;;;;;;5076163;28;20368;-78
2023/07/27 03:37:23;;;;;;;10.87;7.23;;;14.50;99.90;;;;;;5059396;28;20404;-78
2023/07/27 03:39:49;;;;;;;9.87;6.50;;;14.50;99.90;;;;;;5092988;28;20131;-78
2023/07/27 03:42:14;;;;;;;10.07;6.27;;;14.50;99.90;;;;;;5092768;28;20036;-77
2023/07/27 03:44:42;;;;;;;9.20;6.50;;;14.50;99.90;;;;;;5093642;28;20104;-77
2023/07/27 03:47:07;;;;;;;11.27;6.73;;;14.50;99.90;;;;;;5093082;28;20052;-78
2023/07/27 03:49:33;;;;;;;9.93;6.73;;;14.50;99.90;;;;;;5092493;28;20607;-78
2023/07/27 03:51:59;;;;;;;9.77;6.70;;;14.50;99.90;;;;;;5093994;28;20051;-78
2023/07/27 03:54:24;;;;;;;10.00;6.23;;;14.40;99.90;;;;;;5092450;28;20047;-78
2023/07/27 03:56:50;;;;;;;11.20;7.13;;;14.40;99.90;;;;;;5094013;28;20134;-78
2023/07/27 03:59:16;;;;;;;10.67;6.57;;;14.40;99.90;;;;;;5092645;28;20115;-78
2023/07/27 04:01:41;;;;;;;11.50;7.17;;;14.40;99.90;;;;;;5074626;28;20070;-78
2023/07/27 04:04:07;;;;;;;9.77;6.93;;;14.40;99.90;;;;;;5092467;28;20131;-77
2023/07/27 04:06:33;;;;;;;12.73;7.30;;;14.40;99.90;;;;;;5092362;28;20056;-77
2023/07/27 04:08:59;;;;;;;11.10;7.10;;;14.40;99.90;;;;;;5092860;28;20044;-77
2023/07/27 04:11:24;;;;;;;10.20;7.43;;;14.40;99.90;;;;;;5093291;28;20353;-78
2023/07/27 04:13:50;;;;;;;11.03;7.80;;;14.40;99.90;;;;;;5093542;28;20044;-77
2023/07/27 04:16:16;;;;;;;11.90;7.67;;;14.40;99.90;;;;;;5092523;28;20510;-77
2023/07/27 04:18:41;;;;;;;11.93;7.87;;;14.40;99.90;;;;;;5093150;28;20286;-77
2023/07/27 04:21:07;;;;;;;11.33;8.47;;;14.40;99.90;;;;;;5093286;28;20083;-77
2023/07/27 04:23:33;;;;;;;11.93;8.10;;;14.40;99.90;;;;;;5093085;28;20138;-77
2023/07/27 04:26:02;;;;;;;12.83;8.77;;;14.40;99.90;;;;;;5093542;28;20559;-78
2023/07/27 04:28:28;;;;;;;11.67;8.50;;;14.40;99.90;;;;;;5093190;28;20491;-78
2023/07/27 04:30:54;;;;;;;15.70;9.90;;;14.30;99.90;;;;;;5092321;28;20322;-77
2023/07/27 04:33:19;;;;;;;13.13;9.20;;;14.40;99.90;;;;;;5093316;28;20049;-78
2023/07/27 04:35:45;;;;;;;12.67;9.00;;;14.40;99.90;;;;;;5092956;28;20052;-78
2023/07/27 04:38:11;;;;;;;15.90;9.50;;;14.40;99.90;;;;;;5093257;28;20127;-78
2023/07/27 04:40:36;;;;;;;13.67;9.93;;;14.40;99.90;;;;;;5091757;28;20040;-79
2023/07/27 04:43:02;;;;;;;13.20;9.40;;;14.40;99.90;;;;;;5091941;28;20044;-79
2023/07/27 04:45:28;;;;;;;13.77;9.57;;;14.30;99.90;;;;;;5091705;28;20406;-79
2023/07/27 04:47:53;;;;;;;14.87;10.23;;;14.30;99.90;;;;;;5092230;28;20177;-79
2023/07/27 04:50:19;;;;;;;14.47;9.70;;;14.30;99.90;;;;;;5093037;28;20051;-78
2023/07/27 04:52:45;;;;;;;14.07;8.53;;;14.30;99.90;;;;;;5092824;28;20442;-79
2023/07/27 04:55:10;;;;;;;14.17;9.63;;;14.30;99.90;;;;;;5092795;28;20450;-79
2023/07/27 04:57:36;;;;;;;14.10;9.90;;;14.30;99.90;;;;;;5092798;28;20135;-80
2023/07/27 05:00:02;;;;;;;15.47;10.80;;;14.30;99.90;;;;;;5092978;28;20499;-79
2023/07/27 05:02:28;;;;;;;16.50;9.67;;;14.30;99.90;;;;;;5092664;28;20063;-81
2023/07/27 05:04:53;;;;;;;17.10;9.53;;;14.30;99.90;;;;;;5091739;28;20758;-79
2023/07/27 05:07:20;;;;;;;14.37;9.80;;;14.30;99.90;;;;;;5091951;28;20044;-79
2023/07/27 05:09:46;;;;;;;12.67;9.13;;;14.30;99.90;;;;;;5092601;28;20079;-79
2023/07/27 05:12:12;;;;;;;15.10;9.67;;;14.30;99.90;;;;;;5093095;28;20792;-80
2023/07/27 05:14:37;;;;;;;11.93;9.37;;;14.20;99.90;;;;;;5078732;28;20036;-79
2023/07/27 05:17:03;;;;;;;12.73;9.57;;;14.20;99.90;;;;;;5096866;28;20048;-79
2023/07/27 05:19:29;;;;;;;12.27;9.80;;;14.20;99.90;;;;;;5096030;28;20052;-80
2023/07/27 05:21:54;;;;;;;15.30;9.70;;;14.20;99.90;;;;;;5096498;28;20040;-80
2023/07/27 05:24:20;;;;;;;12.60;9.03;;;14.20;99.90;;;;;;5096447;28;20085;-79
2023/07/27 05:26:46;;;;;;;12.43;9.13;;;14.30;99.90;;;;;;5078439;28;20044;-79
2023/07/27 05:29:12;;;;;;;13.23;9.93;;;14.30;99.90;;;;;;5096555;28;20397;-80
2023/07/27 05:31:37;;;;;;;13.83;9.80;;;14.30;99.90;;;;;;5096340;28;20036;-79
2023/07/27 05:34:03;;;;;;;12.47;8.93;;;14.30;99.90;;;;;;5096275;28;20044;-79
2023/07/27 05:36:29;;;;;;;10.93;8.60;;;14.30;99.90;;;;;;5095433;28;20052;-79
2023/07/27 05:38:54;;;;;;;13.30;9.20;;;14.40;99.90;;;;;;5094900;28;20044;-79
2023/07/27 05:41:20;;;;;;;12.77;8.60;;;14.40;99.90;;;;;;5095497;28;20457;-79
2023/07/27 05:43:46;;;;;;;12.03;7.83;;;14.40;99.90;;;;;;5094487;28;20058;-80
2023/07/27 05:46:11;;;;;;;12.13;7.67;;;14.40;99.90;;;;;;5096408;28;20072;-79
2023/07/27 05:48:37;;;;;;;11.00;7.67;;;14.40;99.90;;;;;;5095933;28;20070;-80
2023/07/27 05:51:03;;;;;;;12.60;7.97;;;14.50;99.90;;;;;;5095247;28;20131;-80
2023/07/27 05:53:29;;;;;;;10.77;7.87;;;14.50;99.90;;;;;;5096093;28;20039;-80
2023/07/27 05:55:55;;;;;;;11.60;7.43;;;14.50;99.90;;;;;;5095762;28;20063;-80
2023/07/27 05:58:20;;;;;;;10.17;7.20;;;14.50;99.90;;;;;;5096163;28;20054;-80
2023/07/27 06:00:46;;;;;;;10.60;7.27;;;14.50;99.90;;;;;;5094672;28;20426;-80
2023/07/27 06:03:12;;;;;;;10.20;7.10;;;14.50;99.90;;;;;;5095983;28;20052;-80
2023/07/27 06:05:45;;;;;;;11.60;7.37;;;14.50;99.90;;;;;;5077703;28;20066;-80
2023/07/27 06:08:11;;;;;;;10.27;6.80;;;14.50;99.90;;;;;;5096039;28;20047;-79
2023/07/27 06:10:37;;;;;;;10.17;6.73;;;14.60;99.90;;;;;;5095217;28;20278;-80
2023/07/27 06:13:04;;;;;;;10.47;6.80;;;14.60;99.90;;;;;;5094775;28;20051;-80
2023/07/27 06:15:30;;;;;;;11.50;7.37;;;14.70;99.90;;;;;;5095873;28;20092;-80
2023/07/27 06:17:56;;;;;;;10.50;7.17;;;14.70;99.90;;;;;;5094419;28;20318;-79
2023/07/27 06:20:21;;;;;;;12.47;7.00;;;14.70;99.90;;;;;;5077978;28;20472;-79
2023/07/27 06:22:47;;;;;;;10.87;7.10;;;14.70;99.90;;;;;;5093927;28;20105;-80
2023/07/27 06:25:13;;;;;;;13.03;6.57;;;14.70;99.90;;;;;;5093682;28;20115;-80
2023/07/27 06:27:38;;;;;;;9.93;6.23;;;14.70;99.90;;;;;;5095188;28;20123;-80
2023/07/27 06:30:05;;;;;;;11.10;6.23;;;14.70;99.90;;;;;;5077290;28;20050;-80
2023/07/27 06:32:30;;;;;;;9.93;6.80;;;14.70;99.90;;;;;;5095445;28;20040;-80
2023/07/27 06:34:56;;;;;;;9.07;6.77;;;14.80;99.90;;;;;;5095010;28;20290;-79
2023/07/27 06:37:22;;;;;;;9.87;6.60;;;14.70;99.90;;;;;;5094958;28;20048;-79
2023/07/27 06:39:48;;;;;;;10.00;6.47;;;14.80;99.90;;;;;;5093931;28;20048;-79
2023/07/27 06:42:13;;;;;;;12.00;7.00;;;14.80;99.90;;;;;;5094756;28;20587;-79
2023/07/27 06:44:39;;;;;;;8.87;6.27;;;14.90;99.90;;;;;;5095038;28;20288;-80
2023/07/27 06:47:05;;;;;;;9.93;6.33;;;14.90;99.90;;;;;;5095110;28;20087;-80
2023/07/27 06:49:31;;;;;;;9.63;5.93;;;15.00;99.90;;;;;;5095063;28;20090;-79
2023/07/27 06:51:57;;;;;;;10.23;6.33;;;15.00;99.90;;;;;;5094687;28;20309;-79
2023/07/27 06:54:22;;;;;;;10.27;6.57;;;15.00;99.90;;;;;;5093621;28;20101;-80
2023/07/27 06:56:48;;;;;;;10.57;6.10;;;15.10;99.90;;;;;;5094962;28;20056;-79
2023/07/27 06:59:14;;;;;;;9.67;6.83;;;15.10;99.90;;;;;;5076895;28;20146;-79
2023/07/27 07:01:39;;;;;;;8.23;6.03;;;15.30;99.90;;;;;;5094699;28;20043;-81
2023/07/27 07:04:05;;;;;;;8.47;5.90;;;15.40;99.90;;;;;;5094418;28;20137;-77
2023/07/27 07:06:31;;;;;;;9.50;6.40;;;15.40;99.90;;;;;;5094676;28;20066;-78
2023/07/27 07:08:57;;;;;;;8.93;5.50;;;15.50;99.90;;;;;;5094345;28;20060;-78
2023/07/27 07:11:23;;;;;;;9.77;5.77;;;15.60;99.90;;;;;;5093680;28;20131;-78
2023/07/27 07:13:49;;;;;;;8.30;5.37;;;15.50;99.90;;;;;;5094272;28;20498;-78
2023/07/27 07:16:15;;;;;;;7.70;5.50;;;15.60;99.90;;;;;;5094664;28;20358;-79
2023/07/27 07:18:41;;;;;;;8.70;5.67;;;15.60;99.90;;;;;;5093385;28;20056;-80
2023/07/27 07:21:07;;;;;;;10.17;5.83;;;15.60;99.90;;;;;;5093026;28;20044;-80
2023/07/27 07:23:33;;;;;;;8.90;6.20;;;15.60;99.90;;;;;;5094318;28;20048;-79
2023/07/27 07:25:59;;;;;;;7.90;5.10;;;15.70;99.90;;;;;;5094018;28;20044;-79
2023/07/27 07:28:24;;;;;;;7.90;5.30;;;15.70;99.90;;;;;;5093017;28;20048;-79
2023/07/27 07:30:51;;;;;;;7.87;5.50;;;15.80;99.90;;;;;;5093922;28;20044;-79
2023/07/27 07:33:16;;;;;;;8.37;5.17;;;15.80;99.90;;;;;;5093202;28;20051;-80
2023/07/27 07:35:42;;;;;;;7.40;4.93;;;15.90;99.90;;;;;;5093216;28;20051;-79
2023/07/27 07:38:08;;;;;;;7.63;4.97;;;15.90;99.90;;;;;;5093813;28;20048;-79
2023/07/27 07:40:34;;;;;;;7.23;5.00;;;15.90;99.90;;;;;;5093033;28;20106;-79
2023/07/27 07:42:59;;;;;;;8.43;5.37;;;15.90;99.90;;;;;;5058838;28;20090;-79
2023/07/27 07:45:25;;;;;;;7.37;4.93;;;15.80;99.90;;;;;;5093963;28;20126;-79
2023/07/27 07:47:51;;;;;;;6.57;4.60;;;15.80;99.90;;;;;;5093727;28;20092;-79
2023/07/27 07:50:17;;;;;;;7.30;4.60;;;15.90;99.90;;;;;;5076032;28;20434;-79
2023/07/27 07:52:42;;;;;;;8.23;4.97;;;15.90;99.90;;;;;;5092920;28;20048;-79
2023/07/27 07:55:09;;;;;;;9.37;4.30;;;15.90;99.90;;;;;;5092106;28;20420;-79
2023/07/27 07:57:34;;;;;;;8.80;4.67;;;15.90;99.90;;;;;;5093785;28;20181;-78
2023/07/27 08:00:00;;;;;;;7.63;4.80;;;15.90;99.90;;;;;;5075461;28;20152;-79
2023/07/27 08:02:26;;;;;;;5.40;4.00;;;15.80;99.90;;;;;;5058882;28;20079;-78
2023/07/27 08:04:52;;;;;;;6.43;4.13;;;15.80;99.90;;;;;;5093030;28;20506;-78
2023/07/27 08:07:18;;;;;;;4.97;3.80;;;15.80;99.90;;;;;;5092587;28;20087;-80
2023/07/27 08:09:43;;;;;;;6.20;4.43;;;15.70;99.90;;;;;;5093507;28;20059;-82
2023/07/27 08:12:09;;;;;;;6.37;4.60;;;15.80;99.90;;;;;;5092266;28;20059;-81
2023/07/27 08:14:35;;;;;;;7.83;4.50;;;15.80;99.90;;;;;;5093437;28;20044;-81
2023/07/27 08:17:00;;;;;;;5.57;4.00;;;15.70;99.90;;;;;;5093105;28;20047;-80
2023/07/27 08:19:26;;;;;;;5.40;3.40;;;15.80;99.90;;;;;;5093430;28;20133;-78
2023/07/27 08:21:52;;;;;;;5.63;3.77;;;15.70;99.90;;;;;;5091980;28;20040;-76
2023/07/27 08:24:17;;;;;;;5.07;3.53;;;15.70;99.90;;;;;;5093559;28;20039;-77
2023/07/27 08:26:43;;;;;;;6.47;4.20;;;15.80;99.90;;;;;;5075155;28;20468;-76
2023/07/27 08:29:09;;;;;;;4.90;3.20;;;15.70;99.90;;;;;;5091862;28;20048;-77
2023/07/27 08:31:34;;;;;;;6.13;3.97;;;15.70;99.90;;;;;;5093397;28;20463;-76
2023/07/27 08:34:00;;;;;;;4.97;2.97;;;15.80;99.90;;;;;;5093002;28;20078;-77
2023/07/27 08:36:26;;;;;;;5.80;2.63;;;15.70;99.90;;;;;;5092070;28;20488;-77
2023/07/27 08:38:51;;;;;;;5.37;3.00;;;15.80;99.90;;;;;;5093024;28;20102;-76
2023/07/27 08:41:17;;;;;;;5.20;3.03;;;15.70;99.90;;;;;;5092852;28;20128;-75
2023/07/27 08:43:43;;;;;;;5.43;3.00;;;15.80;99.90;;;;;;5093234;28;20036;-75
2023/07/27 08:46:10;;;;;;;5.37;3.30;;;15.70;99.90;;;;;;5092944;28;20500;-77
2023/07/27 08:48:37;;;;;;;5.87;3.00;;;15.80;99.90;;;;;;5097558;28;20496;-73
2023/07/27 08:51:02;;;;;;;5.20;3.33;;;15.80;99.90;;;;;;5099683;28;20047;-75
2023/07/27 08:53:30;;;;;;;5.43;3.60;;;15.70;99.90;;;;;;5082049;28;20052;-74
2023/07/27 08:55:58;;;;;;;5.23;3.53;;;15.80;99.90;;;;;;5099320;28;20127;-73
2023/07/27 08:58:23;;;;;;;4.73;3.27;;;15.90;99.90;;;;;;5099244;28;20047;-73
2023/07/27 09:00:49;;;;;;;6.27;3.60;;;15.90;99.90;;;;;;5095453;28;20039;-67
2023/07/27 09:03:15;;;;;;;5.03;3.40;;;15.90;99.90;;;;;;5099529;28;20044;-74
2023/07/27 09:05:54;;;;;;;7.20;3.30;;;15.90;99.90;;;;;;5099747;28;20048;-73
2023/07/27 09:08:20;;;;;;;5.03;3.33;;;16.00;99.90;;;;;;5098516;28;20128;-69
2023/07/27 09:10:46;;;;;;;6.10;3.63;;;16.00;99.90;;;;;;5099621;28;20047;-70
2023/07/27 09:13:12;;;;;;;5.60;3.30;;;16.00;99.90;;;;;;5099315;28;20050;-70
2023/07/27 09:15:44;;;;;;;5.33;3.30;;;16.00;99.90;;;;;;5098598;28;20048;-71
2023/07/27 09:18:13;;;;;;;4.87;3.20;;;16.00;99.90;;;;;;5099341;28;20044;-71
2023/07/27 09:20:40;;;;;;;4.43;2.80;;;16.00;99.90;;;;;;5099507;28;20052;-70
2023/07/27 09:23:07;;;;;;;4.90;2.90;;;16.00;99.90;;;;;;5098797;28;20036;-71
2023/07/27 09:25:33;;;;;;;5.63;3.37;;;16.00;99.90;;;;;;5099040;28;21422;-71
2023/07/27 09:27:59;;;;;;;4.70;2.97;;;16.00;99.90;;;;;;5095070;28;20044;-71
2023/07/27 09:30:25;;;;;;;5.20;3.37;;;16.00;99.90;;;;;;5098960;28;20127;-70
2023/07/27 09:32:52;;;;;;;5.10;3.13;;;16.10;99.90;;;;;;5095494;28;20047;-69
2023/07/27 09:35:20;;;;;;;5.67;3.10;;;16.10;99.90;;;;;;5094039;28;20091;-69
2023/07/27 09:37:52;;;;;;;4.90;3.27;;;16.10;99.90;;;;;;5097799;28;20106;-69
2023/07/27 09:40:24;;;;;;;4.43;3.00;;;16.20;99.90;;;;;;5097236;28;20488;-70
2023/07/27 09:42:51;;;;;;;4.43;3.10;;;16.20;99.90;;;;;;5097841;28;20048;-76
2023/07/27 09:45:18;;;;;;;4.87;3.30;;;16.30;99.90;;;;;;5098164;28;20398;-77
2023/07/27 09:47:45;;;;;;;5.30;2.90;;;16.40;99.90;;;;;;5079759;28;20136;-78
2023/07/27 09:50:12;;;;;;;6.07;3.03;;;16.40;99.90;;;;;;5094720;28;20404;-77
2023/07/27 09:52:39;;;;;;;4.43;2.97;;;16.40;99.90;;;;;;5097137;28;20044;-77
2023/07/27 09:55:06;;;;;;;4.37;2.70;;;16.40;99.90;;;;;;5096320;28;20047;-76
2023/07/27 09:57:32;;;;;;;4.10;2.67;;;16.50;99.90;;;;;;5080994;28;20052;-74
2023/07/27 09:59:58;;;;;;;4.90;3.20;;;16.50;99.90;;;;;;5095146;28;20058;-68
2023/07/27 10:02:23;;;;;;;4.60;3.23;;;16.50;99.90;;;;;;5095836;28;20044;-67
2023/07/27 10:04:50;;;;;;;4.33;2.97;;;16.50;99.90;;;;;;5095921;28;20464;-68
2023/07/27 10:07:20;;;;;;;4.00;2.80;;;16.60;99.90;;;;;;5095565;28;20048;-66
2023/07/27 10:09:46;;;;;;;6.03;3.10;;;16.60;99.90;;;;;;5095094;28;20043;-73
2023/07/27 10:12:27;;;;;;;4.67;3.37;;;16.70;99.90;;;;;;5095140;28;20558;-67
2023/07/27 10:15:26;;;;;;;5.03;4.00;;;16.70;99.90;;;;;;5092986;28;20488;-72
2023/07/27 10:17:57;;;;;;;5.83;4.17;;;16.80;99.90;;;;;;5093024;28;20512;-70
2023/07/27 10:20:31;;;;;;;5.07;3.77;;;16.90;99.90;;;;;;5094882;28;20044;-71
2023/07/27 10:23:11;;;;;;;5.40;4.50;;;17.00;99.90;;;;;;5095257;28;20036;-71
2023/07/27 10:25:55;;;;;;;5.33;4.60;;;17.10;99.90;;;;;;5094280;28;20355;-72
2023/07/27 10:28:37;;;;;;;5.40;4.30;;;17.10;99.90;;;;;;5095136;28;20105;-72
2023/07/27 10:31:27;;;;;;;5.93;4.43;;;17.20;99.90;;;;;;5095099;28;20123;-73
2023/07/27 10:33:56;;;;;;;5.43;4.33;;;17.20;99.90;;;;;;5092422;28;20042;-74
2023/07/27 10:36:26;;;;;;;5.00;4.00;;;17.20;99.90;;;;;;5094756;28;20048;-74
2023/07/27 10:38:56;;;;;;;5.33;4.47;;;17.30;99.90;;;;;;5093958;28;20396;-73
2023/07/27 10:41:24;;;;;;;5.40;4.37;;;17.30;99.90;;;;;;5094442;28;20490;-74
2023/07/27 10:44:08;;;;;;;6.00;4.13;;;17.30;99.90;;;;;;5094206;28;20130;-73
2023/07/27 10:46:37;;;;;;;6.90;4.97;;;17.30;99.90;;;;;;5095429;28;20070;-77
2023/07/27 10:49:10;;;;;;;5.70;4.53;;;17.30;99.90;;;;;;5094754;28;20415;-75
2023/07/27 10:51:37;;;;;;;6.37;4.70;;;17.30;99.90;;;;;;5095106;28;20119;-74
2023/07/27 10:54:03;;;;;;;5.30;4.43;;;17.30;99.90;;;;;;5094977;28;20047;-78
2023/07/27 10:56:31;;;;;;;5.80;4.80;;;17.30;99.90;;;;;;5094157;28;20167;-70
2023/07/27 10:59:00;;;;;;;8.70;5.00;;;17.30;99.90;;;;;;5094839;28;20125;-69
2023/07/27 11:01:30;;;;;;;6.20;5.03;;;17.40;99.90;;;;;;5076690;28;20044;-70
2023/07/27 11:03:57;;;;;;;7.10;5.70;;;17.50;99.90;;;;;;5094780;28;20442;-70
2023/07/27 11:06:29;;;;;;;6.20;5.23;;;17.60;99.90;;;;;;5094627;28;20391;-71
2023/07/27 11:08:56;;;;;;;5.80;5.10;;;17.70;99.90;;;;;;5094763;28;20043;-71
2023/07/27 11:11:24;;;;;;;5.87;5.20;;;17.80;99.90;;;;;;5094028;28;20097;-74
2023/07/27 11:13:50;;;;;;;6.70;5.40;;;17.80;99.90;;;;;;5094232;28;20556;-71
2023/07/27 11:16:16;;;;;;;6.33;4.90;;;17.90;99.90;;;;;;5094129;28;20047;-72
2023/07/27 11:18:42;;;;;;;5.43;4.60;;;17.90;99.90;;;;;;5094198;28;20083;-71
2023/07/27 11:21:09;;;;;;;5.70;5.10;;;17.90;99.90;;;;;;5092799;28;20071;-72
2023/07/27 11:23:47;;;;;;;5.73;5.03;;;17.90;99.90;;;;;;5093936;28;20119;-72
2023/07/27 11:26:14;;;;;;;5.23;4.73;;;18.00;99.90;;;;;;5093943;28;20040;-73
2023/07/27 11:28:40;;;;;;;5.37;4.87;;;18.00;99.90;;;;;;5094165;28;20100;-72
2023/07/27 11:31:07;;;;;;;7.03;4.57;;;18.10;99.90;;;;;;5093912;28;20047;-69
2023/07/27 11:33:36;;;;;;;5.63;5.00;;;18.10;99.90;;;;;;5093901;28;20877;-70
2023/07/27 11:36:04;;;;;;;5.47;4.80;;;18.10;99.90;;;;;;5093244;28;20051;-74
2023/07/27 11:38:31;;;;;;;5.70;4.70;;;18.10;99.90;;;;;;5093807;28;20126;-72
2023/07/27 11:40:58;;;;;;;5.80;5.20;;;18.10;99.90;;;;;;5094060;28;20100;-73
2023/07/27 11:43:27;;;;;;;6.73;5.43;;;18.10;99.90;;;;;;5093522;28;20036;-76
2023/07/27 11:45:56;;;;;;;7.70;5.93;;;18.10;99.90;;;;;;5093954;28;20048;-76
2023/07/27 11:48:28;;;;;;;6.47;5.60;;;18.20;99.90;;;;;;5092263;28;20048;-69
2023/07/27 11:51:00;;;;;;;6.50;5.80;;;18.30;99.90;;;;;;5092844;28;20444;-81
2023/07/27 11:53:28;;;;;;;6.57;5.87;;;18.30;99.90;;;;;;5090736;28;20052;-80
2023/07/27 11:55:54;;;;;;;7.40;6.40;;;18.40;99.90;;;;;;5092304;28;20559;-77
2023/07/27 11:58:26;;;;;;;7.70;7.00;;;18.50;99.90;;;;;;5093426;28;20095;-71
2023/07/27 12:00:54;;;;;;;7.43;6.73;;;18.50;99.90;;;;;;5093779;28;20106;-69
2023/07/27 12:03:21;;;;;;;7.10;6.40;;;18.60;99.90;;;;;;5075208;28;20083;-69
2023/07/27 12:05:47;;;;;;;7.10;6.20;;;18.60;99.90;;;;;;5092545;28;20047;-69
2023/07/27 12:08:19;;;;;;;6.83;6.13;;;18.60;99.90;;;;;;5093490;28;20058;-69
2023/07/27 12:11:01;;;;;;;7.57;6.70;;;18.60;99.90;;;;;;5093212;28;20507;-69
2023/07/27 12:13:28;;;;;;;5.60;5.00;;;18.60;99.90;;;;;;5092711;28;20485;-78
2023/07/27 12:15:59;;;;;;;5.07;4.33;;;18.70;99.90;;;;;;5082005;28;20045;-69
2023/07/27 12:18:26;;;;;;;5.87;5.20;;;18.60;99.90;;;;;;5084025;28;20052;-69
2023/07/27 12:20:54;;;;;;;5.90;5.30;;;18.60;99.90;;;;;;5093328;28;20083;-77
2023/07/27 12:23:20;;;;;;;5.97;4.83;;;18.60;99.90;;;;;;5092489;28;20047;-70
2023/07/27 12:25:47;;;;;;;5.17;4.23;;;18.60;99.90;;;;;;5093258;28;20052;-69
2023/07/27 12:28:13;;;;;;;4.63;3.70;;;18.80;99.90;;;;;;5092894;28;20514;-70
2023/07/27 12:30:38;;;;;;;3.80;2.40;;;18.90;99.90;;;;;;5092946;28;20040;-69
2023/07/27 12:33:04;;;;;;;4.30;2.50;;;18.90;99.90;;;;;;5093198;28;20127;-68
2023/07/27 12:35:30;;;;;;;3.80;2.50;;;18.90;99.90;;;;;;5092920;28;20047;-70
2023/07/27 12:37:57;;;;;;;3.93;2.53;;;18.90;99.90;;;;;;5093221;28;20048;-70
2023/07/27 12:40:24;;;;;;;3.63;2.30;;;19.00;99.90;;;;;;5093204;28;20059;-81
2023/07/27 12:42:50;;;;;;;3.37;2.03;;;19.00;99.90;;;;;;5092002;28;20040;-76
2023/07/27 12:45:16;;;;;;;3.70;2.13;;;19.10;99.90;;;;;;5093183;28;20093;-75